This is the latest recevied weather packets stored in our database for station/object N0MR. If no packets are shown the sender has not sent any weather packets the latest 10 day(s).
| Time | Temp. | Humidity | Pressure | Rain* | Wind** | Luminosity | Snow |
|---|---|---|---|---|---|---|---|
| 1778197885 | 7.78° C | 37% | 1008.9 hPa | 0 mm | - | - | - |
| 1778196088 | 7.78° C | 38% | 1009 hPa | 0 mm | - | - | - |
| 1778195485 | 7.78° C | 38% | 1009 hPa | 0 mm | - | - | - |
| 1778194886 | 8.89° C | 36% | 1008.8 hPa | 0 mm | - | - | - |
| 1778194286 | 8.89° C | 36% | 1008.8 hPa | 0 mm | - | - | - |
| 1778192487 | 8.89° C | 40% | 1009 hPa | 0 mm | - | - | - |
| 1778191887 | 8.89° C | 40% | 1009 hPa | 0 mm | - | - | - |
| 1778191286 | 8.33° C | 41% | 1009.1 hPa | 0 mm | - | - | - |
| 1778190687 | 8.33° C | 41% | 1009.1 hPa | 0 mm | - | - | - |
| 1778190086 | 8.33° C | 41% | 1009 hPa | 0 mm | - | - | - |
| 1778189487 | 8.33° C | 47% | 1008.9 hPa | 0 mm | - | - | - |
| 1778188887 | 8.33° C | 47% | 1008.9 hPa | 0 mm | - | - | - |
| 1778188287 | 7.78° C | 47% | 1009.3 hPa | 0 mm | - | - | - |
| 1778187687 | 7.78° C | 47% | 1009.3 hPa | 0 mm | - | - | - |
| 1778187087 | 7.78° C | 49% | 1008.9 hPa | 0 mm | - | - | - |
| 1778186487 | 7.78° C | 49% | 1008.9 hPa | 0 mm | - | - | - |
| 1778185887 | 7.78° C | 57% | 1009.3 hPa | 0 mm | - | - | - |
| 1778185286 | 7.78° C | 57% | 1009.3 hPa | 0 mm | - | - | - |
| 1778184088 | 6.67° C | 67% | 1009.9 hPa | 0 mm | - | - | - |
| 1778182887 | 6.67° C | 64% | 1009.8 hPa | 0 mm | - | - | - |
| 1778182288 | 6.67° C | 62% | 1010 hPa | 0 mm | - | - | - |
| 1778181688 | 6.67° C | 62% | 1010 hPa | 0 mm | - | - | - |
| 1778179887 | 6.11° C | 66% | 1010.2 hPa | 0 mm | - | - | - |
| 1778179287 | 6.11° C | 66% | 1010.2 hPa | 0 mm | - | - | - |
| 1778178688 | 7.78° C | 53% | 1010 hPa | 0 mm | - | - | - |
* Rain latest hour (hover to see other rain measurements)
** Current wind speed in m/s (hover to see current wind gust speed)